sensor_id;sensor_type;location;lat;lon;timestamp;pressure;altitude;pressure_sealevel;temperature;humidity
11888;BME280;6003;42.756;23.130;2022-12-07T00:01:05;153764.81;;;5.27;100.00
11888;BME280;6003;42.756;23.130;2022-12-07T00:03:32;153768.72;;;5.28;100.00
11888;BME280;6003;42.756;23.130;2022-12-07T00:05:59;153774.00;;;5.30;100.00
11888;BME280;6003;42.756;23.130;2022-12-07T00:08:28;153775.31;;;5.31;100.00
11888;BME280;6003;42.756;23.130;2022-12-07T00:10:55;153777.94;;;5.32;100.00
11888;BME280;6003;42.756;23.130;2022-12-07T00:13:22;153776.63;;;5.31;100.00
11888;BME280;6003;42.756;23.130;2022-12-07T00:15:48;153763.47;;;5.26;100.00
11888;BME280;6003;42.756;23.130;2022-12-07T00:18:15;153766.13;;;5.27;100.00
11888;BME280;6003;42.756;23.130;2022-12-07T00:20:42;153770.03;;;5.29;100.00
11888;BME280;6003;42.756;23.130;2022-12-07T00:23:09;153771.34;;;5.29;100.00
11888;BME280;6003;42.756;23.130;2022-12-07T00:25:37;153729.28;;;5.13;100.00
11888;BME280;6003;42.756;23.130;2022-12-07T00:28:04;153708.22;;;5.05;100.00
11888;BME280;6003;42.756;23.130;2022-12-07T00:30:30;153718.72;;;5.09;100.00
11888;BME280;6003;42.756;23.130;2022-12-07T00:32:57;153731.88;;;5.14;100.00
11888;BME280;6003;42.756;23.130;2022-12-07T00:35:24;153733.19;;;5.14;100.00
11888;BME280;6003;42.756;23.130;2022-12-07T00:37:51;153733.19;;;5.14;100.00
11888;BME280;6003;42.756;23.130;2022-12-07T00:40:18;153750.34;;;5.21;100.00
11888;BME280;6003;42.756;23.130;2022-12-07T00:42:46;153754.25;;;5.23;100.00
11888;BME280;6003;42.756;23.130;2022-12-07T00:45:13;153763.47;;;5.26;100.00
11888;BME280;6003;42.756;23.130;2022-12-07T00:47:39;153755.56;;;5.23;100.00
11888;BME280;6003;42.756;23.130;2022-12-07T00:50:07;153748.97;;;5.20;100.00
11888;BME280;6003;42.756;23.130;2022-12-07T00:52:34;153726.59;;;5.12;100.00
11888;BME280;6003;42.756;23.130;2022-12-07T00:55:00;153702.94;;;5.03;100.00
11888;BME280;6003;42.756;23.130;2022-12-07T00:57:27;153700.31;;;5.02;100.00
11888;BME280;6003;42.756;23.130;2022-12-07T00:59:55;153685.84;;;4.96;100.00
11888;BME280;6003;42.756;23.130;2022-12-07T01:02:23;153679.25;;;4.93;100.00
11888;BME280;6003;42.756;23.130;2022-12-07T01:04:50;153666.09;;;4.88;100.00
11888;BME280;6003;42.756;23.130;2022-12-07T01:07:17;153655.59;;;4.84;100.00
11888;BME280;6003;42.756;23.130;2022-12-07T01:09:43;153645.03;;;4.80;100.00
11888;BME280;6003;42.756;23.130;2022-12-07T01:12:10;153647.69;;;4.81;100.00
11888;BME280;6003;42.756;23.130;2022-12-07T01:14:37;153651.63;;;4.83;100.00
11888;BME280;6003;42.756;23.130;2022-12-07T01:17:05;153642.41;;;4.79;100.00
11888;BME280;6003;42.756;23.130;2022-12-07T01:19:32;153651.63;;;4.83;100.00
11888;BME280;6003;42.756;23.130;2022-12-07T01:21:59;153639.81;;;4.78;100.00
11888;BME280;6003;42.756;23.130;2022-12-07T01:24:26;153652.91;;;4.83;100.00
11888;BME280;6003;42.756;23.130;2022-12-07T01:26:52;153662.16;;;4.87;100.00
11888;BME280;6003;42.756;23.130;2022-12-07T01:29:19;153651.63;;;4.83;100.00
11888;BME280;6003;42.756;23.130;2022-12-07T01:31:48;153652.91;;;4.83;100.00
11888;BME280;6003;42.756;23.130;2022-12-07T01:34:17;153650.31;;;4.82;100.00
11888;BME280;6003;42.756;23.130;2022-12-07T01:36:44;153666.09;;;4.88;100.00
11888;BME280;6003;42.756;23.130;2022-12-07T01:39:10;153689.75;;;4.97;100.00
11888;BME280;6003;42.756;23.130;2022-12-07T01:41:39;153695.03;;;5.00;100.00
11888;BME280;6003;42.756;23.130;2022-12-07T01:44:20;153689.75;;;4.97;100.00
11888;BME280;6003;42.756;23.130;2022-12-07T01:46:49;153684.53;;;4.95;100.00
11888;BME280;6003;42.756;23.130;2022-12-07T01:49:23;153683.22;;;4.95;100.00
11888;BME280;6003;42.756;23.130;2022-12-07T01:51:54;153683.22;;;4.95;100.00
11888;BME280;6003;42.756;23.130;2022-12-07T01:54:24;153693.72;;;4.99;100.00
11888;BME280;6003;42.756;23.130;2022-12-07T01:56:54;153697.69;;;5.01;100.00
11888;BME280;6003;42.756;23.130;2022-12-07T01:59:23;153700.31;;;5.02;100.00
11888;BME280;6003;42.756;23.130;2022-12-07T02:01:51;153708.22;;;5.05;100.00
11888;BME280;6003;42.756;23.130;2022-12-07T02:04:21;153700.31;;;5.02;100.00
11888;BME280;6003;42.756;23.130;2022-12-07T02:06:48;153697.69;;;5.01;100.00
11888;BME280;6003;42.756;23.130;2022-12-07T02:09:15;153696.34;;;5.00;100.00
11888;BME280;6003;42.756;23.130;2022-12-07T02:11:42;153702.94;;;5.03;100.00
11888;BME280;6003;42.756;23.130;2022-12-07T02:14:09;153702.94;;;5.03;100.00
11888;BME280;6003;42.756;23.130;2022-12-07T02:16:44;153705.59;;;5.04;100.00
11888;BME280;6003;42.756;23.130;2022-12-07T02:22:23;153676.63;;;4.92;100.00
11888;BME280;6003;42.756;23.130;2022-12-07T02:25:02;153668.75;;;4.89;100.00
11888;BME280;6003;42.756;23.130;2022-12-07T02:27:38;153659.50;;;4.86;100.00
11888;BME280;6003;42.756;23.130;2022-12-07T02:30:10;153617.44;;;4.69;100.00
11888;BME280;6003;42.756;23.130;2022-12-07T02:32:44;153605.59;;;4.65;100.00
11888;BME280;6003;42.756;23.130;2022-12-07T02:35:18;153570.06;;;4.51;100.00
11888;BME280;6003;42.756;23.130;2022-12-07T02:37:57;153577.94;;;4.54;100.00
11888;BME280;6003;42.756;23.130;2022-12-07T02:40:29;153587.19;;;4.58;100.00
11888;BME280;6003;42.756;23.130;2022-12-07T02:43:01;153580.59;;;4.55;100.00
11888;BME280;6003;42.756;23.130;2022-12-07T02:45:31;153542.47;;;4.40;100.00
11888;BME280;6003;42.756;23.130;2022-12-07T02:48:01;153529.31;;;4.35;100.00
11888;BME280;6003;42.756;23.130;2022-12-07T02:50:28;153541.13;;;4.40;100.00
11888;BME280;6003;42.756;23.130;2022-12-07T02:52:55;153550.34;;;4.43;100.00
11888;BME280;6003;42.756;23.130;2022-12-07T02:55:27;153567.44;;;4.50;100.00
11888;BME280;6003;42.756;23.130;2022-12-07T02:58:10;153584.53;;;4.57;100.00
11888;BME280;6003;42.756;23.130;2022-12-07T03:00:48;153583.22;;;4.56;100.00
11888;BME280;6003;42.756;23.130;2022-12-07T03:03:18;153575.34;;;4.53;100.00
11888;BME280;6003;42.756;23.130;2022-12-07T03:05:58;153579.31;;;4.55;100.00
11888;BME280;6003;42.756;23.130;2022-12-07T03:08:50;153574.03;;;4.52;100.00
11888;BME280;6003;42.756;23.130;2022-12-07T03:11:24;153568.75;;;4.50;100.00
11888;BME280;6003;42.756;23.130;2022-12-07T03:13:59;153560.88;;;4.47;100.00
11888;BME280;6003;42.756;23.130;2022-12-07T03:16:33;153579.31;;;4.55;100.00
11888;BME280;6003;42.756;23.130;2022-12-07T03:19:05;153600.31;;;4.63;100.00
11888;BME280;6003;42.756;23.130;2022-12-07T03:21:36;153601.66;;;4.63;100.00
11888;BME280;6003;42.756;23.130;2022-12-07T03:24:08;153580.59;;;4.55;100.00
11888;BME280;6003;42.756;23.130;2022-12-07T03:26:41;153584.53;;;4.57;100.00
11888;BME280;6003;42.756;23.130;2022-12-07T03:29:22;153581.91;;;4.56;100.00
11888;BME280;6003;42.756;23.130;2022-12-07T03:31:55;153599.00;;;4.62;100.00
11888;BME280;6003;42.756;23.130;2022-12-07T03:34:29;153624.03;;;4.72;100.00
11888;BME280;6003;42.756;23.130;2022-12-07T03:37:02;153626.63;;;4.73;100.00
11888;BME280;6003;42.756;23.130;2022-12-07T03:39:34;153642.41;;;4.79;100.00
11888;BME280;6003;42.756;23.130;2022-12-07T03:42:05;153656.88;;;4.85;100.00
11888;BME280;6003;42.756;23.130;2022-12-07T03:44:35;153642.41;;;4.79;100.00
11888;BME280;6003;42.756;23.130;2022-12-07T03:47:06;153650.31;;;4.82;100.00
11888;BME280;6003;42.756;23.130;2022-12-07T03:49:41;153658.19;;;4.85;100.00
11888;BME280;6003;42.756;23.130;2022-12-07T03:52:14;153624.03;;;4.72;100.00
11888;BME280;6003;42.756;23.130;2022-12-07T03:54:49;153641.09;;;4.79;100.00
11888;BME280;6003;42.756;23.130;2022-12-07T03:57:19;153645.03;;;4.80;100.00
11888;BME280;6003;42.756;23.130;2022-12-07T03:59:47;153654.28;;;4.84;100.00
11888;BME280;6003;42.756;23.130;2022-12-07T04:02:16;153650.31;;;4.82;100.00
11888;BME280;6003;42.756;23.130;2022-12-07T04:04:43;153630.56;;;4.74;100.00
11888;BME280;6003;42.756;23.130;2022-12-07T04:07:10;153630.56;;;4.74;100.00
11888;BME280;6003;42.756;23.130;2022-12-07T04:09:38;153621.34;;;4.71;100.00
11888;BME280;6003;42.756;23.130;2022-12-07T04:12:05;153616.09;;;4.69;100.00
11888;BME280;6003;42.756;23.130;2022-12-07T04:14:32;153620.06;;;4.70;100.00
11888;BME280;6003;42.756;23.130;2022-12-07T04:16:59;153629.25;;;4.74;100.00
11888;BME280;6003;42.756;23.130;2022-12-07T04:19:28;153638.50;;;4.78;100.00
11888;BME280;6003;42.756;23.130;2022-12-07T04:21:56;153639.81;;;4.78;100.00
11888;BME280;6003;42.756;23.130;2022-12-07T04:24:23;153642.41;;;4.79;100.00
11888;BME280;6003;42.756;23.130;2022-12-07T04:26:50;153652.91;;;4.83;100.00
11888;BME280;6003;42.756;23.130;2022-12-07T04:29:18;153646.38;;;4.81;100.00
11888;BME280;6003;42.756;23.130;2022-12-07T04:31:45;153634.53;;;4.76;100.00
11888;BME280;6003;42.756;23.130;2022-12-07T04:34:12;153637.13;;;4.77;100.00
11888;BME280;6003;42.756;23.130;2022-12-07T04:36:41;153634.53;;;4.76;100.00
11888;BME280;6003;42.756;23.130;2022-12-07T04:39:21;153622.66;;;4.71;100.00
11888;BME280;6003;42.756;23.130;2022-12-07T04:41:48;153624.03;;;4.72;100.00
11888;BME280;6003;42.756;23.130;2022-12-07T04:44:16;153629.25;;;4.74;100.00
11888;BME280;6003;42.756;23.130;2022-12-07T04:46:43;153642.41;;;4.79;100.00
11888;BME280;6003;42.756;23.130;2022-12-07T04:49:11;153627.94;;;4.73;100.00
11888;BME280;6003;42.756;23.130;2022-12-07T04:51:39;153625.31;;;4.72;100.00
11888;BME280;6003;42.756;23.130;2022-12-07T04:54:07;153629.25;;;4.74;100.00
11888;BME280;6003;42.756;23.130;2022-12-07T04:56:34;153638.50;;;4.78;100.00
11888;BME280;6003;42.756;23.130;2022-12-07T04:59:02;153647.69;;;4.81;100.00
11888;BME280;6003;42.756;23.130;2022-12-07T05:01:29;153620.06;;;4.70;100.00
11888;BME280;6003;42.756;23.130;2022-12-07T05:03:56;153567.44;;;4.50;100.00
11888;BME280;6003;42.756;23.130;2022-12-07T05:06:23;153556.88;;;4.46;100.00
11888;BME280;6003;42.756;23.130;2022-12-07T05:08:50;153555.59;;;4.45;100.00
11888;BME280;6003;42.756;23.130;2022-12-07T05:11:18;153516.16;;;4.30;100.00
11888;BME280;6003;42.756;23.130;2022-12-07T05:13:59;153489.81;;;4.20;100.00
11888;BME280;6003;42.756;23.130;2022-12-07T05:16:26;153517.47;;;4.30;100.00
11888;BME280;6003;42.756;23.130;2022-12-07T05:18:52;153531.91;;;4.36;100.00
11888;BME280;6003;42.756;23.130;2022-12-07T05:21:19;153539.81;;;4.39;100.00
11888;BME280;6003;42.756;23.130;2022-12-07T05:23:46;153531.91;;;4.36;100.00
11888;BME280;6003;42.756;23.130;2022-12-07T05:26:13;153535.88;;;4.38;100.00
11888;BME280;6003;42.756;23.130;2022-12-07T05:28:41;153525.34;;;4.34;100.00
11888;BME280;6003;42.756;23.130;2022-12-07T05:31:08;153531.91;;;4.36;100.00
11888;BME280;6003;42.756;23.130;2022-12-07T05:33:35;153531.91;;;4.36;100.00
11888;BME280;6003;42.756;23.130;2022-12-07T05:36:02;153550.34;;;4.43;100.00
11888;BME280;6003;42.756;23.130;2022-12-07T05:38:31;153558.25;;;4.46;100.00
11888;BME280;6003;42.756;23.130;2022-12-07T05:41:00;153567.44;;;4.50;100.00
11888;BME280;6003;42.756;23.130;2022-12-07T05:43:28;153579.31;;;4.55;100.00
11888;BME280;6003;42.756;23.130;2022-12-07T05:45:56;153567.44;;;4.50;100.00
11888;BME280;6003;42.756;23.130;2022-12-07T05:48:24;153547.69;;;4.42;100.00
11888;BME280;6003;42.756;23.130;2022-12-07T05:50:52;153524.03;;;4.33;100.00
11888;BME280;6003;42.756;23.130;2022-12-07T05:53:19;153520.13;;;4.32;100.00
11888;BME280;6003;42.756;23.130;2022-12-07T05:55:46;153516.16;;;4.30;100.00
11888;BME280;6003;42.756;23.130;2022-12-07T05:58:13;153513.53;;;4.29;100.00
11888;BME280;6003;42.756;23.130;2022-12-07T06:00:59;153517.47;;;4.30;100.00
11888;BME280;6003;42.756;23.130;2022-12-07T06:03:25;153517.47;;;4.30;100.00
11888;BME280;6003;42.756;23.130;2022-12-07T06:05:52;153508.25;;;4.27;100.00
11888;BME280;6003;42.756;23.130;2022-12-07T06:08:19;153500.38;;;4.24;100.00
11888;BME280;6003;42.756;23.130;2022-12-07T06:10:47;153466.16;;;4.11;100.00
11888;BME280;6003;42.756;23.130;2022-12-07T06:13:35;153471.44;;;4.13;100.00
11888;BME280;6003;42.756;23.130;2022-12-07T06:16:02;153496.41;;;4.22;100.00
11888;BME280;6003;42.756;23.130;2022-12-07T06:18:29;153513.53;;;4.29;100.00
11888;BME280;6003;42.756;23.130;2022-12-07T06:20:56;153529.31;;;4.35;100.00
11888;BME280;6003;42.756;23.130;2022-12-07T06:23:22;153558.25;;;4.46;100.00
11888;BME280;6003;42.756;23.130;2022-12-07T06:25:49;153581.91;;;4.56;100.00
11888;BME280;6003;42.756;23.130;2022-12-07T06:28:16;153575.34;;;4.53;100.00
11888;BME280;6003;42.756;23.130;2022-12-07T06:30:43;153600.31;;;4.63;100.00
11888;BME280;6003;42.756;23.130;2022-12-07T06:33:11;153610.84;;;4.67;100.00
11888;BME280;6003;42.756;23.130;2022-12-07T06:35:38;153621.34;;;4.71;100.00
11888;BME280;6003;42.756;23.130;2022-12-07T06:38:05;153645.03;;;4.80;100.00
11888;BME280;6003;42.756;23.130;2022-12-07T06:40:32;153673.97;;;4.91;100.00
11888;BME280;6003;42.756;23.130;2022-12-07T06:42:58;153688.47;;;4.97;100.00
11888;BME280;6003;42.756;23.130;2022-12-07T06:45:25;153713.47;;;5.07;100.00
11888;BME280;6003;42.756;23.130;2022-12-07T06:47:52;153726.59;;;5.12;100.00
11888;BME280;6003;42.756;23.130;2022-12-07T06:50:20;153745.06;;;5.19;100.00
11888;BME280;6003;42.756;23.130;2022-12-07T06:52:47;153759.53;;;5.25;100.00
11888;BME280;6003;42.756;23.130;2022-12-07T06:55:14;153774.00;;;5.30;100.00
11888;BME280;6003;42.756;23.130;2022-12-07T06:57:41;153795.06;;;5.38;100.00
11888;BME280;6003;42.756;23.130;2022-12-07T07:00:08;153802.97;;;5.41;100.00
11888;BME280;6003;42.756;23.130;2022-12-07T07:02:35;153805.59;;;5.42;100.00
11888;BME280;6003;42.756;23.130;2022-12-07T07:05:03;153808.19;;;5.43;100.00
11888;BME280;6003;42.756;23.130;2022-12-07T07:07:31;153787.19;;;5.35;100.00
11888;BME280;6003;42.756;23.130;2022-12-07T07:09:58;153796.38;;;5.39;100.00
11888;BME280;6003;42.756;23.130;2022-12-07T07:12:25;153804.28;;;5.42;100.00
11888;BME280;6003;42.756;23.130;2022-12-07T07:14:51;153824.03;;;5.50;100.00
11888;BME280;6003;42.756;23.130;2022-12-07T07:17:18;153854.31;;;5.61;100.00
11888;BME280;6003;42.756;23.130;2022-12-07T07:19:45;153881.94;;;5.72;100.00
11888;BME280;6003;42.756;23.130;2022-12-07T07:22:12;153905.66;;;5.81;100.00
11888;BME280;6003;42.756;23.130;2022-12-07T07:24:40;153918.78;;;5.86;100.00
11888;BME280;6003;42.756;23.130;2022-12-07T07:27:07;153908.28;;;5.82;100.00
11888;BME280;6003;42.756;23.130;2022-12-07T07:29:34;153905.66;;;5.81;100.00
11888;BME280;6003;42.756;23.130;2022-12-07T07:32:00;153860.91;;;5.64;100.00
11888;BME280;6003;42.756;23.130;2022-12-07T07:34:27;153884.59;;;5.73;100.00
11888;BME280;6003;42.756;23.130;2022-12-07T07:36:54;153930.66;;;5.91;100.00
11888;BME280;6003;42.756;23.130;2022-12-07T07:39:21;153958.38;;;6.02;100.00
11888;BME280;6003;42.756;23.130;2022-12-07T07:41:49;153991.28;;;6.15;100.00
11888;BME280;6003;42.756;23.130;2022-12-07T07:44:16;154005.78;;;6.20;100.00
11888;BME280;6003;42.756;23.130;2022-12-07T07:46:42;154018.97;;;6.25;100.00
11888;BME280;6003;42.756;23.130;2022-12-07T07:49:10;154050.56;;;6.38;100.00
11888;BME280;6003;42.756;23.130;2022-12-07T07:51:37;154055.84;;;6.40;100.00
11888;BME280;6003;42.756;23.130;2022-12-07T07:54:04;154055.84;;;6.40;100.00
11888;BME280;6003;42.756;23.130;2022-12-07T07:56:31;154058.47;;;6.41;100.00
11888;BME280;6003;42.756;23.130;2022-12-07T07:58:59;154061.13;;;6.42;100.00
11888;BME280;6003;42.756;23.130;2022-12-07T08:01:26;154040.03;;;6.33;100.00
11888;BME280;6003;42.756;23.130;2022-12-07T08:03:53;154034.75;;;6.31;100.00
11888;BME280;6003;42.756;23.130;2022-12-07T08:06:19;154041.34;;;6.34;100.00
11888;BME280;6003;42.756;23.130;2022-12-07T08:08:46;154053.19;;;6.39;100.00
11888;BME280;6003;42.756;23.130;2022-12-07T08:11:13;154063.75;;;6.43;100.00
11888;BME280;6003;42.756;23.130;2022-12-07T08:13:40;154091.44;;;6.53;100.00
11888;BME280;6003;42.756;23.130;2022-12-07T08:16:09;154119.06;;;6.64;100.00
11888;BME280;6003;42.756;23.130;2022-12-07T08:18:47;154178.34;;;6.87;100.00
11888;BME280;6003;42.756;23.130;2022-12-07T08:21:14;154196.84;;;6.94;100.00
11888;BME280;6003;42.756;23.130;2022-12-07T08:23:42;154175.72;;;6.86;100.00
11888;BME280;6003;42.756;23.130;2022-12-07T08:26:11;154211.34;;;7.00;100.00
11888;BME280;6003;42.756;23.130;2022-12-07T08:28:39;154260.06;;;7.19;100.00
11888;BME280;6003;42.756;23.130;2022-12-07T08:31:10;154298.34;;;7.34;100.00
11888;BME280;6003;42.756;23.130;2022-12-07T08:33:37;154358.97;;;7.57;100.00
11888;BME280;6003;42.756;23.130;2022-12-07T08:36:06;154326.00;;;7.44;99.03
11888;BME280;6003;42.756;23.130;2022-12-07T08:38:34;154285.16;;;7.29;99.55
11888;BME280;6003;42.756;23.130;2022-12-07T08:41:02;154245.56;;;7.13;100.00
11888;BME280;6003;42.756;23.130;2022-12-07T08:43:28;154270.66;;;7.23;100.00
11888;BME280;6003;42.756;23.130;2022-12-07T08:46:08;154195.53;;;6.94;99.73
11888;BME280;6003;42.756;23.130;2022-12-07T08:49:14;154163.84;;;6.82;100.00
11888;BME280;6003;42.756;23.130;2022-12-07T08:51:42;154181.03;;;6.88;100.00
11888;BME280;6003;42.756;23.130;2022-12-07T08:54:11;154187.63;;;6.91;100.00
11888;BME280;6003;42.756;23.130;2022-12-07T08:56:38;154221.84;;;7.04;100.00
11888;BME280;6003;42.756;23.130;2022-12-07T08:59:06;154277.25;;;7.26;100.00
11888;BME280;6003;42.756;23.130;2022-12-07T09:01:34;154314.16;;;7.40;100.00
11888;BME280;6003;42.756;23.130;2022-12-07T09:04:01;154360.28;;;7.58;100.00
11888;BME280;6003;42.756;23.130;2022-12-07T09:06:28;154343.16;;;7.51;99.79
11888;BME280;6003;42.756;23.130;2022-12-07T09:08:58;154318.09;;;7.41;100.00
11888;BME280;6003;42.756;23.130;2022-12-07T09:11:26;154281.16;;;7.27;100.00
11888;BME280;6003;42.756;23.130;2022-12-07T09:13:52;154291.75;;;7.31;100.00
11888;BME280;6003;42.756;23.130;2022-12-07T09:16:19;154348.41;;;7.53;100.00
11888;BME280;6003;42.756;23.130;2022-12-07T09:18:54;154326.00;;;7.44;100.00
11888;BME280;6003;42.756;23.130;2022-12-07T09:21:20;154287.78;;;7.30;99.95
11888;BME280;6003;42.756;23.130;2022-12-07T09:23:47;154260.06;;;7.19;100.00
11888;BME280;6003;42.756;23.130;2022-12-07T09:26:14;154216.63;;;7.02;100.00
11888;BME280;6003;42.756;23.130;2022-12-07T09:28:41;154216.63;;;7.02;100.00
11888;BME280;6003;42.756;23.130;2022-12-07T09:31:07;154236.34;;;7.10;100.00
11888;BME280;6003;42.756;23.130;2022-12-07T09:33:34;154240.34;;;7.11;100.00
11888;BME280;6003;42.756;23.130;2022-12-07T09:36:03;154253.53;;;7.16;100.00
11888;BME280;6003;42.756;23.130;2022-12-07T09:38:31;154235.03;;;7.09;100.00
11888;BME280;6003;42.756;23.130;2022-12-07T09:41:04;154240.34;;;7.11;100.00
11888;BME280;6003;42.756;23.130;2022-12-07T09:43:31;154269.34;;;7.22;100.00
11888;BME280;6003;42.756;23.130;2022-12-07T09:45:58;154304.88;;;7.36;100.00
11888;BME280;6003;42.756;23.130;2022-12-07T09:48:28;154198.13;;;6.95;100.00
11888;BME280;6003;42.756;23.130;2022-12-07T09:50:58;154236.34;;;7.10;100.00
11888;BME280;6003;42.756;23.130;2022-12-07T09:53:30;154271.97;;;7.23;100.00
11888;BME280;6003;42.756;23.130;2022-12-07T09:55:59;154310.19;;;7.38;100.00
11888;BME280;6003;42.756;23.130;2022-12-07T09:58:27;154353.69;;;7.55;100.00
11888;BME280;6003;42.756;23.130;2022-12-07T10:00:56;154370.81;;;7.62;100.00
11888;BME280;6003;42.756;23.130;2022-12-07T10:03:26;154266.66;;;7.21;100.00
11888;BME280;6003;42.756;23.130;2022-12-07T10:05:54;154265.34;;;7.21;100.00
11888;BME280;6003;42.756;23.130;2022-12-07T10:08:21;154220.53;;;7.04;100.00
11888;BME280;6003;42.756;23.130;2022-12-07T10:10:52;154266.66;;;7.21;100.00
11888;BME280;6003;42.756;23.130;2022-12-07T10:13:20;154269.34;;;7.22;100.00
11888;BME280;6003;42.756;23.130;2022-12-07T10:15:49;154324.69;;;7.44;100.00
11888;BME280;6003;42.756;23.130;2022-12-07T10:18:26;154369.50;;;7.61;100.00
11888;BME280;6003;42.756;23.130;2022-12-07T10:21:11;154423.56;;;7.82;100.00
11888;BME280;6003;42.756;23.130;2022-12-07T10:23:39;154469.78;;;8.00;100.00
11888;BME280;6003;42.756;23.130;2022-12-07T10:26:39;154504.03;;;8.13;100.00
11888;BME280;6003;42.756;23.130;2022-12-07T10:29:22;154472.41;;;8.01;100.00
11888;BME280;6003;42.756;23.130;2022-12-07T10:31:54;154472.41;;;8.01;100.00
11888;BME280;6003;42.756;23.130;2022-12-07T10:34:24;154500.09;;;8.12;100.00
11888;BME280;6003;42.756;23.130;2022-12-07T10:36:51;154529.13;;;8.23;100.00
11888;BME280;6003;42.756;23.130;2022-12-07T10:39:21;154574.03;;;8.41;100.00
11888;BME280;6003;42.756;23.130;2022-12-07T10:41:58;154587.19;;;8.46;99.90
11888;BME280;6003;42.756;23.130;2022-12-07T10:44:27;154609.63;;;8.54;99.80
11888;BME280;6003;42.756;23.130;2022-12-07T10:47:03;154616.25;;;8.57;100.00
11888;BME280;6003;42.756;23.130;2022-12-07T10:50:02;154653.19;;;8.71;98.10
11888;BME280;6003;42.756;23.130;2022-12-07T10:52:45;154636.03;;;8.65;97.90
11888;BME280;6003;42.756;23.130;2022-12-07T10:55:22;154587.19;;;8.46;98.40
11888;BME280;6003;42.756;23.130;2022-12-07T10:58:07;154604.38;;;8.52;99.15
11888;BME280;6003;42.756;23.130;2022-12-07T11:00:44;154596.47;;;8.49;98.50
11888;BME280;6003;42.756;23.130;2022-12-07T11:03:30;154527.78;;;8.23;99.22
11888;BME280;6003;42.756;23.130;2022-12-07T11:06:10;154480.31;;;8.04;99.01
11888;BME280;6003;42.756;23.130;2022-12-07T11:08:53;154548.91;;;8.31;100.00
11888;BME280;6003;42.756;23.130;2022-12-07T11:11:28;154551.56;;;8.32;99.03
11888;BME280;6003;42.756;23.130;2022-12-07T11:14:09;154620.22;;;8.58;99.78
11888;BME280;6003;42.756;23.130;2022-12-07T11:16:54;154678.31;;;8.81;98.13
11888;BME280;6003;42.756;23.130;2022-12-07T11:19:34;154708.66;;;8.93;96.89
11888;BME280;6003;42.756;23.130;2022-12-07T11:22:10;154741.63;;;9.06;96.59
11888;BME280;6003;42.756;23.130;2022-12-07T11:24:43;154762.78;;;9.14;94.87
11888;BME280;6003;42.756;23.130;2022-12-07T11:27:21;154777.28;;;9.19;95.19
11888;BME280;6003;42.756;23.130;2022-12-07T11:32:50;154754.84;;;9.11;93.23
11888;BME280;6003;42.756;23.130;2022-12-07T11:35:24;154769.38;;;9.16;93.96
11888;BME280;6003;42.756;23.130;2022-12-07T11:37:57;154765.38;;;9.15;94.71
11888;BME280;6003;42.756;23.130;2022-12-07T11:40:28;154749.56;;;9.09;95.08
11888;BME280;6003;42.756;23.130;2022-12-07T11:42:59;154721.88;;;8.98;95.61
11888;BME280;6003;42.756;23.130;2022-12-07T11:45:31;154698.06;;;8.89;94.64
11888;BME280;6003;42.756;23.130;2022-12-07T11:48:01;154695.44;;;8.88;94.89
11888;BME280;6003;42.756;23.130;2022-12-07T11:50:33;154647.94;;;8.69;95.33
11888;BME280;6003;42.756;23.130;2022-12-07T11:53:05;154642.66;;;8.67;95.31
11888;BME280;6003;42.756;23.130;2022-12-07T11:55:42;154643.97;;;8.68;95.99
11888;BME280;6003;42.756;23.130;2022-12-07T11:58:33;154640.03;;;8.66;95.92
11888;BME280;6003;42.756;23.130;2022-12-07T12:01:12;154645.28;;;8.68;95.86
11888;BME280;6003;42.756;23.130;2022-12-07T12:03:42;154653.19;;;8.71;96.30
11888;BME280;6003;42.756;23.130;2022-12-07T12:06:10;154651.88;;;8.71;96.40
11888;BME280;6003;42.756;23.130;2022-12-07T12:08:40;154638.66;;;8.66;96.42
11888;BME280;6003;42.756;23.130;2022-12-07T12:11:22;154604.38;;;8.52;96.23
11888;BME280;6003;42.756;23.130;2022-12-07T12:14:09;154574.03;;;8.41;96.27
11888;BME280;6003;42.756;23.130;2022-12-07T12:16:52;154591.19;;;8.47;96.13
11888;BME280;6003;42.756;23.130;2022-12-07T12:19:29;154629.44;;;8.62;96.51
11888;BME280;6003;42.756;23.130;2022-12-07T12:22:04;154654.56;;;8.72;95.87
11888;BME280;6003;42.756;23.130;2022-12-07T12:24:33;154667.72;;;8.77;94.73
11888;BME280;6003;42.756;23.130;2022-12-07T12:27:05;154683.53;;;8.83;93.94
11888;BME280;6003;42.756;23.130;2022-12-07T12:29:34;154682.22;;;8.82;94.56
11888;BME280;6003;42.756;23.130;2022-12-07T12:32:13;154680.94;;;8.82;93.95
11888;BME280;6003;42.756;23.130;2022-12-07T12:34:58;154709.97;;;8.93;93.94
11888;BME280;6003;42.756;23.130;2022-12-07T12:37:42;154715.25;;;8.95;93.99
11888;BME280;6003;42.756;23.130;2022-12-07T12:40:40;154731.09;;;9.01;93.93
11888;BME280;6003;42.756;23.130;2022-12-07T12:43:39;154728.44;;;9.00;94.20
11888;BME280;6003;42.756;23.130;2022-12-07T12:46:38;154736.38;;;9.03;93.50
11888;BME280;6003;42.756;23.130;2022-12-07T12:58:37;154744.31;;;9.07;92.30
11888;BME280;6003;42.756;23.130;2022-12-07T13:04:34;154754.84;;;9.11;92.64
11888;BME280;6003;42.756;23.130;2022-12-07T13:07:10;154761.47;;;9.13;92.25
11888;BME280;6003;42.756;23.130;2022-12-07T13:09:43;154762.78;;;9.14;91.88
11888;BME280;6003;42.756;23.130;2022-12-07T13:12:14;154770.69;;;9.17;92.14
11888;BME280;6003;42.756;23.130;2022-12-07T13:14:53;154770.69;;;9.17;92.18
11888;BME280;6003;42.756;23.130;2022-12-07T13:20:48;154765.38;;;9.15;91.63
11888;BME280;6003;42.756;23.130;2022-12-07T13:23:20;154745.63;;;9.07;92.36
11888;BME280;6003;42.756;23.130;2022-12-07T13:25:53;154721.88;;;8.98;92.90
11888;BME280;6003;42.756;23.130;2022-12-07T13:28:35;154723.19;;;8.98;92.54
11888;BME280;6003;42.756;23.130;2022-12-07T13:31:19;154724.50;;;8.99;92.89
11888;BME280;6003;42.756;23.130;2022-12-07T13:33:49;154725.81;;;8.99;92.48